createdAt,value
2022-11-09T00:01:02.949Z,6.37
2022-11-09T00:03:30.776Z,3.60
2022-11-09T00:05:59.624Z,3.13
2022-11-09T00:08:27.779Z,2.70
2022-11-09T00:10:55.628Z,2.67
2022-11-09T00:13:24.746Z,3.17
2022-11-09T00:15:52.599Z,2.70
2022-11-09T00:18:20.416Z,2.43
2022-11-09T00:20:48.616Z,2.30
2022-11-09T00:23:17.014Z,2.10
2022-11-09T00:25:45.296Z,2.47
2022-11-09T00:28:13.157Z,2.50
2022-11-09T00:30:42.629Z,2.73
2022-11-09T00:33:12.161Z,2.33
2022-11-09T00:35:40.189Z,2.50
2022-11-09T00:38:08.103Z,2.10
2022-11-09T00:40:36.142Z,2.20
2022-11-09T00:43:04.380Z,2.50
2022-11-09T00:45:32.201Z,2.50
2022-11-09T00:48:01.374Z,2.40
2022-11-09T00:50:29.239Z,2.40
2022-11-09T00:52:57.097Z,2.10
2022-11-09T00:55:24.990Z,2.87
2022-11-09T00:57:53.648Z,3.33
2022-11-09T01:00:23.460Z,3.60
2022-11-09T01:02:51.807Z,2.70
2022-11-09T01:05:21.032Z,2.90
2022-11-09T01:07:48.915Z,2.73
2022-11-09T01:10:16.754Z,2.40
2022-11-09T01:12:44.619Z,3.07
2022-11-09T01:15:12.469Z,3.00
2022-11-09T01:17:40.295Z,2.77
2022-11-09T01:20:08.906Z,2.80
2022-11-09T01:22:38.119Z,2.50
2022-11-09T01:25:06.805Z,2.00
2022-11-09T01:27:34.955Z,2.10
2022-11-09T01:30:03.097Z,1.97
2022-11-09T01:32:33.398Z,1.90
2022-11-09T01:35:01.220Z,2.10
2022-11-09T01:37:29.087Z,2.30
2022-11-09T01:39:58.272Z,2.10
2022-11-09T01:42:27.359Z,2.47
2022-11-09T01:45:21.993Z,2.00
2022-11-09T01:47:53.711Z,2.50
2022-11-09T01:50:31.556Z,2.30
2022-11-09T01:53:01.825Z,2.70
2022-11-09T01:55:31.906Z,2.50
2022-11-09T01:58:04.252Z,2.37
2022-11-09T02:00:33.445Z,2.00
2022-11-09T02:03:06.014Z,2.47
2022-11-09T02:05:36.977Z,2.20
2022-11-09T02:08:06.995Z,2.20
2022-11-09T02:10:41.879Z,2.37
2022-11-09T02:13:12.007Z,2.30
2022-11-09T02:15:44.432Z,2.47
2022-11-09T02:18:13.647Z,2.43
2022-11-09T02:20:48.475Z,2.53
2022-11-09T02:23:16.497Z,2.50
2022-11-09T02:25:49.457Z,2.27
2022-11-09T02:28:18.468Z,3.50
2022-11-09T02:30:51.278Z,2.27
2022-11-09T02:33:19.290Z,3.00
2022-11-09T02:35:48.772Z,3.10
2022-11-09T02:38:16.843Z,2.80
2022-11-09T02:40:49.076Z,3.40
2022-11-09T02:43:19.130Z,2.60
2022-11-09T02:45:47.164Z,2.77
2022-11-09T02:48:15.020Z,2.97
2022-11-09T02:50:42.878Z,3.00
2022-11-09T02:53:12.051Z,2.77
2022-11-09T02:55:39.901Z,2.73
2022-11-09T02:58:07.759Z,3.30
2022-11-09T03:00:35.567Z,2.90
2022-11-09T03:03:04.058Z,2.60
2022-11-09T03:05:31.906Z,3.33
2022-11-09T03:08:02.292Z,2.60
2022-11-09T03:10:31.547Z,3.33
2022-11-09T03:12:59.508Z,2.90
2022-11-09T03:15:27.353Z,2.80
2022-11-09T03:17:55.164Z,2.70
2022-11-09T03:20:23.014Z,2.67
2022-11-09T03:22:50.830Z,2.83
2022-11-09T03:25:18.892Z,2.77
2022-11-09T03:27:48.043Z,2.70
2022-11-09T03:30:18.908Z,2.63
2022-11-09T03:32:50.420Z,3.10
2022-11-09T03:35:18.784Z,2.80
2022-11-09T03:37:46.713Z,2.60
2022-11-09T03:40:14.664Z,2.80
2022-11-09T03:42:45.694Z,3.30
2022-11-09T03:45:15.452Z,2.67
2022-11-09T03:47:43.656Z,2.27
2022-11-09T03:50:12.798Z,2.40
2022-11-09T03:52:40.917Z,2.30
2022-11-09T03:55:09.463Z,2.50
2022-11-09T03:57:37.288Z,2.50
2022-11-09T04:00:06.717Z,2.20
2022-11-09T04:02:35.880Z,2.43
2022-11-09T04:05:03.723Z,2.70
2022-11-09T04:07:31.820Z,2.50
2022-11-09T04:09:59.746Z,2.43
2022-11-09T04:12:27.666Z,2.20
2022-11-09T04:14:55.490Z,2.60
2022-11-09T04:17:23.346Z,2.13
2022-11-09T04:19:52.500Z,2.57
2022-11-09T04:22:20.344Z,2.67
2022-11-09T04:24:48.171Z,2.13
2022-11-09T04:27:16.599Z,1.93
2022-11-09T04:29:44.428Z,2.20
2022-11-09T04:32:12.363Z,2.10
2022-11-09T04:34:41.256Z,1.90
2022-11-09T04:37:10.785Z,1.73
2022-11-09T04:39:38.595Z,1.80
2022-11-09T04:42:06.597Z,2.10
2022-11-09T04:44:34.489Z,2.17
2022-11-09T04:47:02.327Z,2.30
2022-11-09T04:49:30.142Z,1.90
2022-11-09T04:51:57.997Z,2.00
2022-11-09T04:54:27.159Z,2.10
2022-11-09T04:56:55.259Z,2.30
2022-11-09T04:59:23.079Z,2.10
2022-11-09T05:01:50.962Z,2.03
2022-11-09T05:04:18.844Z,1.90
2022-11-09T05:06:46.793Z,1.60
2022-11-09T05:09:14.690Z,1.77
2022-11-09T05:11:43.876Z,1.60
2022-11-09T05:14:11.713Z,1.97
2022-11-09T05:16:39.626Z,1.60
2022-11-09T05:19:07.467Z,1.50
2022-11-09T05:21:35.298Z,2.20
2022-11-09T05:24:02.950Z,1.70
2022-11-09T05:26:32.724Z,1.80
2022-11-09T05:29:04.399Z,1.70
2022-11-09T05:31:32.796Z,1.60
2022-11-09T05:34:01.096Z,1.73
2022-11-09T05:36:30.477Z,1.57
2022-11-09T05:38:58.844Z,1.63
2022-11-09T05:41:27.264Z,1.50
2022-11-09T05:43:55.278Z,1.90
2022-11-09T05:46:25.180Z,1.47
2022-11-09T05:48:52.998Z,1.80
2022-11-09T05:51:20.849Z,1.77
2022-11-09T05:53:48.679Z,1.57
2022-11-09T05:56:17.008Z,1.43
2022-11-09T05:58:44.854Z,1.60
2022-11-09T06:01:14.543Z,1.73
2022-11-09T06:03:44.210Z,1.50
2022-11-09T06:06:14.136Z,1.60
2022-11-09T06:08:42.580Z,1.73
2022-11-09T06:11:13.064Z,1.53
2022-11-09T06:13:42.552Z,2.03
2022-11-09T06:16:11.170Z,2.30
2022-11-09T06:18:39.019Z,2.03
2022-11-09T06:21:08.299Z,2.17
2022-11-09T06:23:36.225Z,1.90
2022-11-09T06:26:07.371Z,1.80
2022-11-09T06:28:35.204Z,2.00
2022-11-09T06:31:04.838Z,2.27
2022-11-09T06:33:34.222Z,2.20
2022-11-09T06:36:02.960Z,1.60
2022-11-09T06:38:32.211Z,1.80
2022-11-09T06:41:01.321Z,1.63
2022-11-09T06:43:29.659Z,1.30
2022-11-09T06:45:57.949Z,2.60
2022-11-09T06:48:25.941Z,1.03
2022-11-09T06:50:53.771Z,1.60
2022-11-09T06:53:22.036Z,1.50
2022-11-09T06:55:51.520Z,1.20
2022-11-09T06:58:19.988Z,1.37
2022-11-09T07:00:47.993Z,1.43
2022-11-09T07:03:16.889Z,1.90
2022-11-09T07:05:45.128Z,1.20
2022-11-09T07:08:13.413Z,1.40
2022-11-09T07:10:41.559Z,1.30
2022-11-09T07:13:11.190Z,1.40
2022-11-09T07:15:39.940Z,1.30
2022-11-09T07:18:11.851Z,1.10
2022-11-09T07:20:39.994Z,1.47
2022-11-09T07:23:07.874Z,1.30
2022-11-09T07:25:36.001Z,1.10
2022-11-09T07:28:04.879Z,1.40
2022-11-09T07:30:38.535Z,1.27
2022-11-09T07:33:16.426Z,1.30
2022-11-09T07:35:44.544Z,1.33
2022-11-09T07:38:12.591Z,1.30
2022-11-09T07:40:40.779Z,1.40
2022-11-09T07:43:09.014Z,1.50
2022-11-09T07:45:38.447Z,1.53
2022-11-09T07:48:09.044Z,1.20
2022-11-09T07:50:38.499Z,1.30
2022-11-09T07:53:08.167Z,1.20
2022-11-09T07:55:36.998Z,1.20
2022-11-09T07:58:08.332Z,1.40
2022-11-09T08:00:39.182Z,1.63
2022-11-09T08:03:07.559Z,1.70
2022-11-09T08:05:35.664Z,1.57
2022-11-09T08:08:06.019Z,1.60
2022-11-09T08:10:35.144Z,1.40
2022-11-09T08:13:04.921Z,1.80
2022-11-09T08:15:33.440Z,1.40
2022-11-09T08:18:04.490Z,1.83
2022-11-09T08:20:33.204Z,1.33
2022-11-09T08:23:04.647Z,1.30
2022-11-09T08:25:33.292Z,1.30
2022-11-09T08:28:01.133Z,1.20
2022-11-09T08:30:29.093Z,1.30
2022-11-09T08:32:57.011Z,1.50
2022-11-09T08:35:26.679Z,1.30
2022-11-09T08:37:55.444Z,2.07
2022-11-09T08:40:25.175Z,1.33
2022-11-09T08:42:53.750Z,1.40
2022-11-09T08:45:21.747Z,1.20
2022-11-09T08:47:49.671Z,1.20
2022-11-09T08:50:17.689Z,2.17
2022-11-09T08:52:46.954Z,1.30
2022-11-09T08:55:14.831Z,1.20
2022-11-09T08:57:42.749Z,1.30
2022-11-09T09:00:11.507Z,1.30
2022-11-09T09:02:39.348Z,1.30
2022-11-09T09:05:07.865Z,1.30
2022-11-09T09:07:35.776Z,1.60
2022-11-09T09:10:05.811Z,1.37
2022-11-09T09:12:33.861Z,1.30
2022-11-09T09:15:01.822Z,1.20
2022-11-09T09:17:29.721Z,1.50
2022-11-09T09:19:57.651Z,1.67
2022-11-09T09:22:25.559Z,1.40
2022-11-09T09:24:53.730Z,1.20
2022-11-09T09:27:22.896Z,1.40
2022-11-09T09:29:50.769Z,1.30
2022-11-09T09:32:18.656Z,1.27
2022-11-09T09:34:46.535Z,1.30
2022-11-09T09:37:14.418Z,1.23
2022-11-09T09:39:42.275Z,1.40
2022-11-09T09:42:16.010Z,1.20
2022-11-09T09:44:50.833Z,1.27
2022-11-09T09:47:22.509Z,1.10
2022-11-09T09:49:56.194Z,1.00
2022-11-09T09:52:32.291Z,1.40
2022-11-09T09:55:06.173Z,1.20
2022-11-09T09:57:41.485Z,1.00
2022-11-09T10:00:20.495Z,1.00
2022-11-09T10:02:49.498Z,1.23
2022-11-09T10:05:18.596Z,1.20
2022-11-09T10:07:55.804Z,1.20
2022-11-09T10:10:38.036Z,1.10
2022-11-09T10:13:29.454Z,1.00
2022-11-09T10:16:07.078Z,0.93
2022-11-09T10:18:43.481Z,1.10
2022-11-09T10:21:23.237Z,0.97
2022-11-09T10:24:04.727Z,0.87
2022-11-09T10:26:41.028Z,1.23
2022-11-09T10:29:23.834Z,1.00
2022-11-09T10:31:55.169Z,0.90
2022-11-09T10:34:31.060Z,1.30
2022-11-09T10:37:05.574Z,1.20
2022-11-09T10:39:42.403Z,1.03
2022-11-09T10:42:12.382Z,1.00
2022-11-09T10:44:40.234Z,1.10
2022-11-09T10:47:12.219Z,1.10
2022-11-09T10:49:41.573Z,0.97
2022-11-09T10:52:31.912Z,1.10
2022-11-09T10:55:17.018Z,1.20
2022-11-09T10:57:56.749Z,1.03
2022-11-09T11:00:57.579Z,1.10
2022-11-09T11:03:27.112Z,0.93
2022-11-09T11:05:59.345Z,1.30
2022-11-09T11:08:33.941Z,1.10
2022-11-09T11:11:39.422Z,1.10
2022-11-09T11:14:30.220Z,1.20
2022-11-09T11:16:58.153Z,1.70
2022-11-09T11:19:46.046Z,1.80
2022-11-09T11:22:23.233Z,2.97
2022-11-09T11:24:59.896Z,5.50
2022-11-09T11:27:33.604Z,3.37
2022-11-09T11:30:10.431Z,1.83
2022-11-09T11:32:38.694Z,1.90
2022-11-09T11:35:16.024Z,2.53
2022-11-09T11:37:56.740Z,3.47
2022-11-09T11:40:31.447Z,2.47
2022-11-09T11:43:11.662Z,4.70
2022-11-09T11:45:43.519Z,3.00
2022-11-09T11:48:38.678Z,6.07
2022-11-09T11:51:12.547Z,1.63
2022-11-09T11:53:58.664Z,2.90
2022-11-09T11:56:32.211Z,5.93
2022-11-09T11:59:26.599Z,4.40
2022-11-09T12:02:19.558Z,1.80
2022-11-09T12:05:17.177Z,1.70
2022-11-09T12:07:56.976Z,2.00
2022-11-09T12:10:40.056Z,5.30
2022-11-09T12:13:17.276Z,3.30
2022-11-09T12:15:56.105Z,6.40
2022-11-09T12:18:36.768Z,4.57
2022-11-09T12:21:16.186Z,8.17
2022-11-09T12:24:01.207Z,8.20
2022-11-09T12:26:42.889Z,13.07
2022-11-09T12:29:19.642Z,8.80
2022-11-09T12:32:00.857Z,5.23
2022-11-09T12:34:33.671Z,5.43
2022-11-09T12:37:05.346Z,5.50
2022-11-09T12:39:39.880Z,7.47
2022-11-09T12:42:13.658Z,2.47
2022-11-09T12:44:45.941Z,3.80
2022-11-09T12:47:17.756Z,3.40
2022-11-09T12:49:47.158Z,3.23
2022-11-09T12:52:19.335Z,2.03
2022-11-09T12:54:50.137Z,2.93
2022-11-09T12:57:23.327Z,2.50
2022-11-09T12:59:53.705Z,3.03
2022-11-09T13:02:37.381Z,2.43
2022-11-09T13:05:07.955Z,6.40
2022-11-09T13:07:54.585Z,3.07
2022-11-09T13:10:31.157Z,1.73
2022-11-09T13:13:20.759Z,1.40
2022-11-09T13:16:31.171Z,1.40
2022-11-09T13:18:59.319Z,2.30
2022-11-09T13:21:38.636Z,1.57
2022-11-09T13:24:55.622Z,1.30
2022-11-09T13:27:43.354Z,1.37
2022-11-09T13:30:51.298Z,1.30
2022-11-09T13:33:22.411Z,1.90
2022-11-09T13:36:22.929Z,2.33
2022-11-09T13:39:29.441Z,1.80
2022-11-09T13:41:57.571Z,1.80
2022-11-09T13:44:32.852Z,1.70
2022-11-09T13:47:03.996Z,1.90
2022-11-09T13:49:45.773Z,1.40
2022-11-09T13:52:43.211Z,1.47
2022-11-09T13:55:26.205Z,1.50
2022-11-09T13:57:56.633Z,1.77
2022-11-09T14:00:27.478Z,2.27
2022-11-09T14:02:57.489Z,2.20
2022-11-09T14:05:27.595Z,1.70
2022-11-09T14:07:56.583Z,1.90
2022-11-09T14:11:07.830Z,1.70
2022-11-09T14:14:03.391Z,1.70
2022-11-09T14:16:45.547Z,2.00
2022-11-09T14:19:27.710Z,2.10
2022-11-09T14:21:55.603Z,1.80
2022-11-09T14:24:25.600Z,2.10
2022-11-09T14:27:17.103Z,1.90
2022-11-09T14:29:53.850Z,1.73
2022-11-09T14:32:41.045Z,2.00
2022-11-09T14:35:19.786Z,2.40
2022-11-09T14:37:48.161Z,2.93
2022-11-09T14:40:21.090Z,2.40
2022-11-09T14:42:51.793Z,2.90
2022-11-09T14:45:20.440Z,2.83
2022-11-09T14:47:52.734Z,3.23
2022-11-09T14:50:24.125Z,2.70
2022-11-09T14:52:53.731Z,3.40
2022-11-09T14:55:23.644Z,1.50
2022-11-09T14:57:54.609Z,1.40
2022-11-09T15:00:25.023Z,1.60
2022-11-09T15:02:54.400Z,4.30
2022-11-09T15:05:31.338Z,5.23
2022-11-09T15:08:00.002Z,4.77
2022-11-09T15:10:29.884Z,3.23
2022-11-09T15:13:01.303Z,2.40
2022-11-09T15:15:31.026Z,1.50
2022-11-09T15:18:01.372Z,2.03
2022-11-09T15:20:32.811Z,2.63
2022-11-09T15:23:02.644Z,2.97
2022-11-09T15:25:33.659Z,2.30
2022-11-09T15:28:22.214Z,2.30
2022-11-09T15:31:12.629Z,2.00
2022-11-09T15:33:47.765Z,1.70
2022-11-09T15:36:26.091Z,2.03
2022-11-09T15:39:09.403Z,2.30
2022-11-09T15:41:38.550Z,2.73
2022-11-09T15:44:07.106Z,3.10
2022-11-09T15:46:37.353Z,3.13
2022-11-09T15:49:16.280Z,3.80
2022-11-09T15:51:45.221Z,3.60
2022-11-09T15:54:13.195Z,3.50
2022-11-09T15:56:41.750Z,3.10
2022-11-09T15:59:12.791Z,2.80
2022-11-09T16:01:40.959Z,2.57
2022-11-09T16:04:10.172Z,2.10
2022-11-09T16:06:40.392Z,1.80
2022-11-09T16:09:11.737Z,1.90
2022-11-09T16:11:39.630Z,1.70
2022-11-09T16:14:08.439Z,2.10
2022-11-09T16:16:36.287Z,2.27
2022-11-09T16:19:04.140Z,2.30
2022-11-09T16:21:33.324Z,2.70
2022-11-09T16:24:01.135Z,2.53
2022-11-09T16:26:28.997Z,2.40
2022-11-09T16:28:56.856Z,2.40
2022-11-09T16:31:48.291Z,2.30
2022-11-09T16:34:12.759Z,3.23
2022-11-09T16:36:48.070Z,2.30
2022-11-09T16:39:19.087Z,2.10
2022-11-09T16:41:49.227Z,2.07
2022-11-09T16:44:19.362Z,2.57
2022-11-09T16:46:48.793Z,3.17
2022-11-09T16:49:16.654Z,3.10
2022-11-09T16:51:45.840Z,2.63
2022-11-09T16:54:13.797Z,3.00
2022-11-09T16:56:41.618Z,4.20
2022-11-09T16:59:09.540Z,4.30
2022-11-09T17:01:37.381Z,6.20
2022-11-09T17:04:05.396Z,5.53
2022-11-09T17:06:33.982Z,5.73
2022-11-09T17:09:03.276Z,5.60
2022-11-09T17:11:31.161Z,5.27
2022-11-09T17:14:00.273Z,4.97
2022-11-09T17:16:28.675Z,3.40
2022-11-09T17:18:57.757Z,3.20
2022-11-09T17:21:27.437Z,2.23
2022-11-09T17:23:56.387Z,1.63
2022-11-09T17:26:26.638Z,1.60
2022-11-09T17:28:54.890Z,1.40
2022-11-09T17:31:26.505Z,1.00
2022-11-09T17:34:00.978Z,1.00
2022-11-09T17:36:49.340Z,0.80
2022-11-09T17:39:17.288Z,1.20
2022-11-09T17:41:46.448Z,0.83
2022-11-09T17:44:14.329Z,1.00
2022-11-09T17:46:42.326Z,1.03
2022-11-09T17:49:10.632Z,1.30
2022-11-09T17:51:38.871Z,1.10
2022-11-09T17:54:06.806Z,1.37
2022-11-09T17:56:35.151Z,1.03
2022-11-09T17:59:05.390Z,1.70
2022-11-09T18:01:39.499Z,2.30
2022-11-09T18:04:10.104Z,2.50
2022-11-09T18:06:38.462Z,2.63
2022-11-09T18:11:55.058Z,2.80
2022-11-09T18:14:24.225Z,3.07
2022-11-09T18:16:52.081Z,2.90
2022-11-09T18:19:19.914Z,5.17
2022-11-09T18:21:48.039Z,3.30
2022-11-09T18:24:16.055Z,3.77
2022-11-09T18:26:43.900Z,1.20
2022-11-09T18:29:11.795Z,2.20
2022-11-09T18:31:40.995Z,2.10
2022-11-09T18:34:08.849Z,1.60
2022-11-09T18:36:36.730Z,1.97
2022-11-09T18:39:04.710Z,2.07
2022-11-09T18:41:33.425Z,2.17
2022-11-09T18:44:01.279Z,3.10
2022-11-09T18:46:30.785Z,3.10
2022-11-09T18:49:00.324Z,3.30
2022-11-09T18:51:28.220Z,3.30
2022-11-09T18:53:56.114Z,2.90
2022-11-09T18:56:25.802Z,2.90
2022-11-09T18:58:56.198Z,3.17
2022-11-09T19:01:26.878Z,3.97
2022-11-09T19:03:59.302Z,3.40
2022-11-09T19:06:29.393Z,3.40
2022-11-09T19:09:15.177Z,3.13
2022-11-09T19:11:43.054Z,3.10
2022-11-09T19:14:11.315Z,2.87
2022-11-09T19:16:39.317Z,3.10
2022-11-09T19:19:07.207Z,3.27
2022-11-09T19:21:40.234Z,3.10
2022-11-09T19:24:12.012Z,2.63
2022-11-09T19:26:39.863Z,2.90
2022-11-09T19:29:08.409Z,2.67
2022-11-09T19:31:36.862Z,3.23
2022-11-09T19:34:05.439Z,3.07
2022-11-09T19:36:33.743Z,3.10
2022-11-09T19:39:03.274Z,3.23
2022-11-09T19:41:31.156Z,2.80
2022-11-09T19:43:59.769Z,2.40
2022-11-09T19:46:30.390Z,2.67
2022-11-09T19:48:58.389Z,2.50
2022-11-09T19:51:29.245Z,2.30
2022-11-09T19:53:58.352Z,1.87
2022-11-09T19:56:29.040Z,1.77
2022-11-09T19:58:59.213Z,1.43
2022-11-09T20:01:27.845Z,1.10
2022-11-09T20:03:58.830Z,1.23
2022-11-09T20:06:27.746Z,1.50
2022-11-09T20:08:55.869Z,1.13
2022-11-09T20:11:44.852Z,1.47
2022-11-09T20:14:14.706Z,1.53
2022-11-09T20:16:44.419Z,1.30
2022-11-09T20:19:14.252Z,1.20
2022-11-09T20:21:44.253Z,1.40
2022-11-09T20:24:12.537Z,1.30
2022-11-09T20:26:43.335Z,1.60
2022-11-09T20:29:11.231Z,1.80
2022-11-09T20:31:40.762Z,2.23
2022-11-09T20:34:09.424Z,2.03
2022-11-09T20:36:37.270Z,1.63
2022-11-09T20:39:05.434Z,1.80
2022-11-09T20:41:33.840Z,1.67
2022-11-09T20:44:01.705Z,2.10
2022-11-09T20:46:35.493Z,1.70
2022-11-09T20:49:05.943Z,2.00
2022-11-09T20:51:33.846Z,2.00
2022-11-09T20:54:06.867Z,1.67
2022-11-09T20:56:35.295Z,1.40
2022-11-09T20:59:03.169Z,1.77
2022-11-09T21:01:31.167Z,1.90
2022-11-09T21:03:59.215Z,1.10
2022-11-09T21:06:28.539Z,0.87
2022-11-09T21:08:57.051Z,1.10
2022-11-09T21:11:28.597Z,1.10
2022-11-09T21:13:56.988Z,1.30
2022-11-09T21:16:25.160Z,1.50
2022-11-09T21:18:53.495Z,1.30
2022-11-09T21:21:23.851Z,1.30
2022-11-09T21:24:10.384Z,1.20
2022-11-09T21:26:55.891Z,1.70
2022-11-09T21:29:42.753Z,1.40
2022-11-09T21:32:12.074Z,1.40
2022-11-09T21:34:40.238Z,1.70
2022-11-09T21:37:08.497Z,1.60
2022-11-09T21:39:38.269Z,1.50
2022-11-09T21:42:07.383Z,1.40
2022-11-09T21:44:35.761Z,1.47
2022-11-09T21:47:03.724Z,1.50
2022-11-09T21:49:31.692Z,1.40
2022-11-09T21:51:59.932Z,1.30
2022-11-09T21:54:28.208Z,1.40
2022-11-09T21:56:57.595Z,1.40
2022-11-09T21:59:25.772Z,1.63
2022-11-09T22:01:53.735Z,1.63
2022-11-09T22:04:21.646Z,1.47
2022-11-09T22:06:49.511Z,1.63
2022-11-09T22:09:18.781Z,1.60
2022-11-09T22:12:03.791Z,1.83
2022-11-09T22:14:50.441Z,1.33
2022-11-09T22:17:18.302Z,1.60
2022-11-09T22:20:03.894Z,1.40
2022-11-09T22:22:33.869Z,1.60
2022-11-09T22:25:01.724Z,2.20
2022-11-09T22:27:31.188Z,1.90
2022-11-09T22:30:00.546Z,1.83
2022-11-09T22:32:28.384Z,1.97
2022-11-09T22:34:56.276Z,2.20
2022-11-09T22:37:24.083Z,1.80
2022-11-09T22:39:51.905Z,2.00
2022-11-09T22:42:19.808Z,2.10
2022-11-09T22:44:47.639Z,2.30
2022-11-09T22:47:16.819Z,2.17
2022-11-09T22:49:44.667Z,2.43
2022-11-09T22:52:12.518Z,2.70
2022-11-09T22:54:40.377Z,3.40
2022-11-09T22:57:08.199Z,2.60
2022-11-09T22:59:36.090Z,2.77
2022-11-09T23:02:03.922Z,2.90
2022-11-09T23:04:33.341Z,3.00
2022-11-09T23:07:01.212Z,2.80
2022-11-09T23:09:29.086Z,2.50
2022-11-09T23:11:57.027Z,2.80
2022-11-09T23:14:38.778Z,2.80
2022-11-09T23:17:26.641Z,2.63
2022-11-09T23:19:54.883Z,2.60
2022-11-09T23:22:22.714Z,2.50
2022-11-09T23:25:08.164Z,2.70
2022-11-09T23:27:35.974Z,2.60
2022-11-09T23:30:04.244Z,2.90
2022-11-09T23:32:32.097Z,2.90
2022-11-09T23:35:01.286Z,2.50
2022-11-09T23:37:29.104Z,2.60
2022-11-09T23:39:56.963Z,3.10
2022-11-09T23:42:24.787Z,2.40
2022-11-09T23:44:52.718Z,2.60
2022-11-09T23:47:20.590Z,2.80
2022-11-09T23:49:48.452Z,2.40
2022-11-09T23:52:17.813Z,2.67
2022-11-09T23:54:45.923Z,3.10
2022-11-09T23:57:14.156Z,3.47
2022-11-09T23:59:42.120Z,3.13
